sensor_id;sensor_type;location;lat;lon;timestamp;P1;durP1;ratioP1;P2;durP2;ratioP2
73693;SDS011;61997;53.974;11.670;2023-04-25T00:00:44;7.95;;;5.15;;
73693;SDS011;61997;53.974;11.670;2023-04-25T00:03:13;6.53;;;4.32;;
73693;SDS011;61997;53.974;11.670;2023-04-25T00:05:42;7.80;;;4.50;;
73693;SDS011;61997;53.974;11.670;2023-04-25T00:08:14;7.95;;;5.10;;
73693;SDS011;61997;53.974;11.670;2023-04-25T00:10:43;9.50;;;4.82;;
73693;SDS011;61997;53.974;11.670;2023-04-25T00:13:13;7.97;;;4.40;;
73693;SDS011;61997;53.974;11.670;2023-04-25T00:15:40;7.32;;;4.65;;
73693;SDS011;61997;53.974;11.670;2023-04-25T00:18:14;6.38;;;4.22;;
73693;SDS011;61997;53.974;11.670;2023-04-25T00:20:46;6.47;;;3.83;;
73693;SDS011;61997;53.974;11.670;2023-04-25T00:23:19;7.78;;;4.57;;
73693;SDS011;61997;53.974;11.670;2023-04-25T00:26:02;6.95;;;4.10;;
73693;SDS011;61997;53.974;11.670;2023-04-25T00:28:39;6.50;;;3.97;;
73693;SDS011;61997;53.974;11.670;2023-04-25T00:31:11;5.90;;;3.67;;
73693;SDS011;61997;53.974;11.670;2023-04-25T00:33:44;7.10;;;4.20;;
73693;SDS011;61997;53.974;11.670;2023-04-25T00:36:24;6.72;;;4.00;;
73693;SDS011;61997;53.974;11.670;2023-04-25T00:39:03;5.13;;;3.42;;
73693;SDS011;61997;53.974;11.670;2023-04-25T00:41:37;6.78;;;3.72;;
73693;SDS011;61997;53.974;11.670;2023-04-25T00:44:12;5.18;;;3.45;;
73693;SDS011;61997;53.974;11.670;2023-04-25T00:46:45;5.32;;;3.67;;
73693;SDS011;61997;53.974;11.670;2023-04-25T00:49:27;6.30;;;3.60;;
73693;SDS011;61997;53.974;11.670;2023-04-25T00:52:00;5.82;;;3.22;;
73693;SDS011;61997;53.974;11.670;2023-04-25T00:57:04;5.20;;;2.92;;
73693;SDS011;61997;53.974;11.670;2023-04-25T00:59:43;5.07;;;3.03;;
73693;SDS011;61997;53.974;11.670;2023-04-25T01:02:14;5.25;;;3.08;;
73693;SDS011;61997;53.974;11.670;2023-04-25T01:04:43;6.68;;;3.10;;
73693;SDS011;61997;53.974;11.670;2023-04-25T01:07:13;5.57;;;2.88;;
73693;SDS011;61997;53.974;11.670;2023-04-25T01:09:40;4.57;;;3.30;;
73693;SDS011;61997;53.974;11.670;2023-04-25T01:12:13;6.43;;;3.08;;
73693;SDS011;61997;53.974;11.670;2023-04-25T01:14:41;4.55;;;2.95;;
73693;SDS011;61997;53.974;11.670;2023-04-25T01:17:14;5.05;;;2.90;;
73693;SDS011;61997;53.974;11.670;2023-04-25T01:19:49;3.72;;;2.70;;
73693;SDS011;61997;53.974;11.670;2023-04-25T01:22:25;3.90;;;2.78;;
73693;SDS011;61997;53.974;11.670;2023-04-25T01:25:04;5.88;;;2.97;;
73693;SDS011;61997;53.974;11.670;2023-04-25T01:27:33;5.47;;;2.67;;
73693;SDS011;61997;53.974;11.670;2023-04-25T01:30:03;4.78;;;2.72;;
73693;SDS011;61997;53.974;11.670;2023-04-25T01:32:34;5.20;;;2.88;;
73693;SDS011;61997;53.974;11.670;2023-04-25T01:35:05;5.10;;;2.40;;
73693;SDS011;61997;53.974;11.670;2023-04-25T01:37:44;5.38;;;2.97;;
73693;SDS011;61997;53.974;11.670;2023-04-25T01:40:17;3.35;;;2.40;;
73693;SDS011;61997;53.974;11.670;2023-04-25T01:42:51;3.17;;;2.00;;
73693;SDS011;61997;53.974;11.670;2023-04-25T01:45:29;4.65;;;2.65;;
73693;SDS011;61997;53.974;11.670;2023-04-25T01:48:07;5.18;;;2.80;;
73693;SDS011;61997;53.974;11.670;2023-04-25T01:50:49;3.13;;;2.33;;
73693;SDS011;61997;53.974;11.670;2023-04-25T01:53:22;3.63;;;2.22;;
73693;SDS011;61997;53.974;11.670;2023-04-25T01:55:55;3.50;;;2.67;;
73693;SDS011;61997;53.974;11.670;2023-04-25T01:58:30;3.83;;;2.28;;
73693;SDS011;61997;53.974;11.670;2023-04-25T02:01:03;5.03;;;2.50;;
73693;SDS011;61997;53.974;11.670;2023-04-25T02:03:32;5.28;;;2.58;;
73693;SDS011;61997;53.974;11.670;2023-04-25T02:05:58;3.13;;;2.20;;
73693;SDS011;61997;53.974;11.670;2023-04-25T02:08:25;3.65;;;2.40;;
73693;SDS011;61997;53.974;11.670;2023-04-25T02:10:51;4.63;;;2.22;;
73693;SDS011;61997;53.974;11.670;2023-04-25T02:13:17;5.05;;;2.33;;
73693;SDS011;61997;53.974;11.670;2023-04-25T02:15:43;3.55;;;2.30;;
73693;SDS011;61997;53.974;11.670;2023-04-25T02:18:08;3.97;;;2.22;;
73693;SDS011;61997;53.974;11.670;2023-04-25T02:20:35;2.70;;;2.05;;
73693;SDS011;61997;53.974;11.670;2023-04-25T02:23:02;4.65;;;2.28;;
73693;SDS011;61997;53.974;11.670;2023-04-25T02:25:28;3.70;;;1.83;;
73693;SDS011;61997;53.974;11.670;2023-04-25T02:27:54;3.92;;;2.00;;
73693;SDS011;61997;53.974;11.670;2023-04-25T02:30:20;4.90;;;2.45;;
73693;SDS011;61997;53.974;11.670;2023-04-25T02:32:46;4.40;;;2.17;;
73693;SDS011;61997;53.974;11.670;2023-04-25T02:35:12;3.83;;;2.40;;
73693;SDS011;61997;53.974;11.670;2023-04-25T02:37:38;3.90;;;2.28;;
73693;SDS011;61997;53.974;11.670;2023-04-25T02:40:05;4.10;;;2.22;;
73693;SDS011;61997;53.974;11.670;2023-04-25T02:42:31;6.30;;;2.42;;
73693;SDS011;61997;53.974;11.670;2023-04-25T02:44:57;4.05;;;2.10;;
73693;SDS011;61997;53.974;11.670;2023-04-25T02:47:23;4.57;;;2.38;;
73693;SDS011;61997;53.974;11.670;2023-04-25T02:49:49;3.65;;;1.83;;
73693;SDS011;61997;53.974;11.670;2023-04-25T02:52:16;3.45;;;2.10;;
73693;SDS011;61997;53.974;11.670;2023-04-25T02:54:42;6.00;;;1.90;;
73693;SDS011;61997;53.974;11.670;2023-04-25T02:57:08;4.18;;;1.90;;
73693;SDS011;61997;53.974;11.670;2023-04-25T02:59:35;4.05;;;2.03;;
73693;SDS011;61997;53.974;11.670;2023-04-25T03:02:01;3.70;;;1.83;;
73693;SDS011;61997;53.974;11.670;2023-04-25T03:04:29;4.22;;;2.13;;
73693;SDS011;61997;53.974;11.670;2023-04-25T03:06:57;4.80;;;1.98;;
73693;SDS011;61997;53.974;11.670;2023-04-25T03:09:24;4.38;;;1.90;;
73693;SDS011;61997;53.974;11.670;2023-04-25T03:14:18;4.65;;;2.33;;
73693;SDS011;61997;53.974;11.670;2023-04-25T03:16:45;5.05;;;2.38;;
73693;SDS011;61997;53.974;11.670;2023-04-25T03:19:11;6.05;;;1.88;;
73693;SDS011;61997;53.974;11.670;2023-04-25T03:21:44;4.53;;;2.35;;
73693;SDS011;61997;53.974;11.670;2023-04-25T03:24:25;4.80;;;2.13;;
73693;SDS011;61997;53.974;11.670;2023-04-25T03:26:57;4.03;;;2.05;;
73693;SDS011;61997;53.974;11.670;2023-04-25T03:29:34;3.00;;;1.85;;
73693;SDS011;61997;53.974;11.670;2023-04-25T03:32:11;4.70;;;1.90;;
73693;SDS011;61997;53.974;11.670;2023-04-25T03:34:49;3.83;;;1.88;;
73693;SDS011;61997;53.974;11.670;2023-04-25T03:37:21;4.80;;;2.08;;
73693;SDS011;61997;53.974;11.670;2023-04-25T03:39:56;3.63;;;1.95;;
73693;SDS011;61997;53.974;11.670;2023-04-25T03:42:31;5.05;;;1.90;;
73693;SDS011;61997;53.974;11.670;2023-04-25T03:45:09;2.80;;;1.80;;
73693;SDS011;61997;53.974;11.670;2023-04-25T03:47:43;5.80;;;2.08;;
73693;SDS011;61997;53.974;11.670;2023-04-25T03:50:14;3.72;;;1.92;;
73693;SDS011;61997;53.974;11.670;2023-04-25T03:52:40;5.82;;;1.90;;
73693;SDS011;61997;53.974;11.670;2023-04-25T03:55:06;5.65;;;2.13;;
73693;SDS011;61997;53.974;11.670;2023-04-25T03:57:33;5.20;;;2.22;;
73693;SDS011;61997;53.974;11.670;2023-04-25T04:00:00;5.20;;;1.90;;
73693;SDS011;61997;53.974;11.670;2023-04-25T04:02:34;4.72;;;2.20;;
73693;SDS011;61997;53.974;11.670;2023-04-25T04:05:04;5.45;;;2.00;;
73693;SDS011;61997;53.974;11.670;2023-04-25T04:07:34;5.80;;;2.05;;
73693;SDS011;61997;53.974;11.670;2023-04-25T04:10:09;4.20;;;2.00;;
73693;SDS011;61997;53.974;11.670;2023-04-25T04:12:36;4.50;;;2.30;;
73693;SDS011;61997;53.974;11.670;2023-04-25T04:15:05;4.03;;;1.90;;
73693;SDS011;61997;53.974;11.670;2023-04-25T04:17:41;6.75;;;2.20;;
73693;SDS011;61997;53.974;11.670;2023-04-25T04:20:09;4.82;;;1.83;;
73693;SDS011;61997;53.974;11.670;2023-04-25T04:22:36;5.13;;;2.08;;
73693;SDS011;61997;53.974;11.670;2023-04-25T04:25:02;7.57;;;2.33;;
73693;SDS011;61997;53.974;11.670;2023-04-25T04:27:31;4.63;;;1.88;;
73693;SDS011;61997;53.974;11.670;2023-04-25T04:30:03;6.57;;;2.15;;
73693;SDS011;61997;53.974;11.670;2023-04-25T04:32:31;5.25;;;2.35;;
73693;SDS011;61997;53.974;11.670;2023-04-25T04:35:02;7.07;;;2.17;;
73693;SDS011;61997;53.974;11.670;2023-04-25T04:37:29;7.63;;;1.88;;
73693;SDS011;61997;53.974;11.670;2023-04-25T04:39:55;4.63;;;1.80;;
73693;SDS011;61997;53.974;11.670;2023-04-25T04:42:23;3.25;;;2.08;;
73693;SDS011;61997;53.974;11.670;2023-04-25T04:44:54;6.72;;;2.38;;
73693;SDS011;61997;53.974;11.670;2023-04-25T04:47:25;5.82;;;2.13;;
73693;SDS011;61997;53.974;11.670;2023-04-25T04:49:58;4.88;;;2.25;;
73693;SDS011;61997;53.974;11.670;2023-04-25T04:52:26;5.03;;;2.28;;
73693;SDS011;61997;53.974;11.670;2023-04-25T04:54:56;6.70;;;1.70;;
73693;SDS011;61997;53.974;11.670;2023-04-25T04:57:23;6.13;;;1.92;;
73693;SDS011;61997;53.974;11.670;2023-04-25T04:59:52;5.82;;;1.95;;
73693;SDS011;61997;53.974;11.670;2023-04-25T05:02:26;3.83;;;1.83;;
73693;SDS011;61997;53.974;11.670;2023-04-25T05:04:52;5.82;;;2.30;;
73693;SDS011;61997;53.974;11.670;2023-04-25T05:07:18;4.65;;;2.13;;
73693;SDS011;61997;53.974;11.670;2023-04-25T05:09:46;3.83;;;2.03;;
73693;SDS011;61997;53.974;11.670;2023-04-25T05:12:11;4.38;;;2.13;;
73693;SDS011;61997;53.974;11.670;2023-04-25T05:14:39;4.88;;;1.88;;
73693;SDS011;61997;53.974;11.670;2023-04-25T05:17:10;6.80;;;2.65;;
73693;SDS011;61997;53.974;11.670;2023-04-25T05:19:36;5.78;;;1.80;;
73693;SDS011;61997;53.974;11.670;2023-04-25T05:22:02;6.35;;;2.00;;
73693;SDS011;61997;53.974;11.670;2023-04-25T05:24:31;7.03;;;2.10;;
73693;SDS011;61997;53.974;11.670;2023-04-25T05:26:59;5.03;;;1.90;;
73693;SDS011;61997;53.974;11.670;2023-04-25T05:29:28;3.65;;;1.92;;
73693;SDS011;61997;53.974;11.670;2023-04-25T05:32:04;5.25;;;2.22;;
73693;SDS011;61997;53.974;11.670;2023-04-25T05:34:32;7.70;;;2.30;;
73693;SDS011;61997;53.974;11.670;2023-04-25T05:37:07;3.63;;;1.70;;
73693;SDS011;61997;53.974;11.670;2023-04-25T05:39:32;7.95;;;2.05;;
73693;SDS011;61997;53.974;11.670;2023-04-25T05:41:58;7.35;;;2.05;;
73693;SDS011;61997;53.974;11.670;2023-04-25T05:44:25;6.53;;;2.10;;
73693;SDS011;61997;53.974;11.670;2023-04-25T05:46:59;4.95;;;1.80;;
73693;SDS011;61997;53.974;11.670;2023-04-25T05:49:29;5.95;;;2.15;;
73693;SDS011;61997;53.974;11.670;2023-04-25T05:52:04;5.78;;;2.20;;
73693;SDS011;61997;53.974;11.670;2023-04-25T05:54:32;5.05;;;2.00;;
73693;SDS011;61997;53.974;11.670;2023-04-25T05:57:03;7.18;;;2.20;;
73693;SDS011;61997;53.974;11.670;2023-04-25T05:59:42;4.10;;;1.95;;
73693;SDS011;61997;53.974;11.670;2023-04-25T06:02:11;5.38;;;2.25;;
73693;SDS011;61997;53.974;11.670;2023-04-25T06:04:45;6.43;;;2.20;;
73693;SDS011;61997;53.974;11.670;2023-04-25T06:09:47;4.65;;;1.75;;
73693;SDS011;61997;53.974;11.670;2023-04-25T06:12:27;5.30;;;2.00;;
73693;SDS011;61997;53.974;11.670;2023-04-25T06:17:19;5.80;;;1.92;;
73693;SDS011;61997;53.974;11.670;2023-04-25T06:19:44;5.15;;;2.33;;
73693;SDS011;61997;53.974;11.670;2023-04-25T06:22:11;5.10;;;2.08;;
73693;SDS011;61997;53.974;11.670;2023-04-25T06:24:42;5.20;;;1.95;;
73693;SDS011;61997;53.974;11.670;2023-04-25T06:27:11;5.47;;;1.90;;
73693;SDS011;61997;53.974;11.670;2023-04-25T06:29:41;5.90;;;2.00;;
73693;SDS011;61997;53.974;11.670;2023-04-25T06:32:13;6.60;;;1.92;;
73693;SDS011;61997;53.974;11.670;2023-04-25T06:34:44;5.07;;;1.63;;
73693;SDS011;61997;53.974;11.670;2023-04-25T06:37:10;3.90;;;1.70;;
73693;SDS011;61997;53.974;11.670;2023-04-25T06:39:36;4.78;;;1.92;;
73693;SDS011;61997;53.974;11.670;2023-04-25T06:42:01;5.90;;;1.80;;
73693;SDS011;61997;53.974;11.670;2023-04-25T06:44:30;5.05;;;2.20;;
73693;SDS011;61997;53.974;11.670;2023-04-25T06:47:01;3.30;;;1.85;;
73693;SDS011;61997;53.974;11.670;2023-04-25T06:49:34;6.20;;;2.78;;
73693;SDS011;61997;53.974;11.670;2023-04-25T06:52:04;3.70;;;1.88;;
73693;SDS011;61997;53.974;11.670;2023-04-25T06:54:35;4.40;;;2.08;;
73693;SDS011;61997;53.974;11.670;2023-04-25T06:57:11;4.15;;;1.50;;
73693;SDS011;61997;53.974;11.670;2023-04-25T06:59:37;4.72;;;2.22;;
73693;SDS011;61997;53.974;11.670;2023-04-25T07:02:10;4.35;;;2.20;;
73693;SDS011;61997;53.974;11.670;2023-04-25T07:04:44;4.38;;;1.90;;
73693;SDS011;61997;53.974;11.670;2023-04-25T07:07:15;5.40;;;2.30;;
73693;SDS011;61997;53.974;11.670;2023-04-25T07:09:46;5.50;;;2.53;;
73693;SDS011;61997;53.974;11.670;2023-04-25T07:12:22;4.95;;;2.25;;
73693;SDS011;61997;53.974;11.670;2023-04-25T07:14:55;7.72;;;2.28;;
73693;SDS011;61997;53.974;11.670;2023-04-25T07:17:23;6.97;;;2.00;;
73693;SDS011;61997;53.974;11.670;2023-04-25T07:19:57;6.38;;;2.50;;
73693;SDS011;61997;53.974;11.670;2023-04-25T07:22:26;6.47;;;3.13;;
73693;SDS011;61997;53.974;11.670;2023-04-25T07:25:01;7.22;;;2.75;;
73693;SDS011;61997;53.974;11.670;2023-04-25T07:27:31;8.68;;;3.70;;
73693;SDS011;61997;53.974;11.670;2023-04-25T07:30:04;7.82;;;3.47;;
73693;SDS011;61997;53.974;11.670;2023-04-25T07:32:33;5.57;;;3.08;;
73693;SDS011;61997;53.974;11.670;2023-04-25T07:35:05;7.38;;;3.63;;
73693;SDS011;61997;53.974;11.670;2023-04-25T07:37:32;8.45;;;3.17;;
73693;SDS011;61997;53.974;11.670;2023-04-25T07:40:01;7.22;;;2.97;;
73693;SDS011;61997;53.974;11.670;2023-04-25T07:42:33;5.47;;;3.05;;
73693;SDS011;61997;53.974;11.670;2023-04-25T07:45:03;10.82;;;3.45;;
73693;SDS011;61997;53.974;11.670;2023-04-25T07:47:31;6.43;;;3.28;;
73693;SDS011;61997;53.974;11.670;2023-04-25T07:50:05;7.63;;;2.95;;
73693;SDS011;61997;53.974;11.670;2023-04-25T07:52:39;9.18;;;3.10;;
73693;SDS011;61997;53.974;11.670;2023-04-25T07:55:06;7.20;;;2.95;;
73693;SDS011;61997;53.974;11.670;2023-04-25T07:57:33;7.13;;;2.67;;
73693;SDS011;61997;53.974;11.670;2023-04-25T08:00:00;5.57;;;2.53;;
73693;SDS011;61997;53.974;11.670;2023-04-25T08:02:34;7.57;;;2.95;;
73693;SDS011;61997;53.974;11.670;2023-04-25T08:04:59;8.93;;;3.00;;
73693;SDS011;61997;53.974;11.670;2023-04-25T08:07:25;4.70;;;2.70;;
73693;SDS011;61997;53.974;11.670;2023-04-25T08:09:51;9.25;;;3.70;;
73693;SDS011;61997;53.974;11.670;2023-04-25T08:12:20;7.35;;;3.45;;
73693;SDS011;61997;53.974;11.670;2023-04-25T08:14:48;6.57;;;3.33;;
73693;SDS011;61997;53.974;11.670;2023-04-25T08:17:15;8.80;;;3.50;;
73693;SDS011;61997;53.974;11.670;2023-04-25T08:19:43;7.40;;;3.53;;
73693;SDS011;61997;53.974;11.670;2023-04-25T08:22:16;5.70;;;2.97;;
73693;SDS011;61997;53.974;11.670;2023-04-25T08:24:53;5.95;;;3.00;;
73693;SDS011;61997;53.974;11.670;2023-04-25T08:27:33;5.90;;;3.22;;
73693;SDS011;61997;53.974;11.670;2023-04-25T08:30:10;7.53;;;3.50;;
73693;SDS011;61997;53.974;11.670;2023-04-25T08:32:38;4.57;;;2.97;;
73693;SDS011;61997;53.974;11.670;2023-04-25T08:35:14;6.63;;;3.88;;
73693;SDS011;61997;53.974;11.670;2023-04-25T08:37:45;7.18;;;3.72;;
73693;SDS011;61997;53.974;11.670;2023-04-25T08:40:19;7.43;;;2.92;;
73693;SDS011;61997;53.974;11.670;2023-04-25T08:42:53;11.15;;;3.60;;
73693;SDS011;61997;53.974;11.670;2023-04-25T08:45:20;6.68;;;3.40;;
73693;SDS011;61997;53.974;11.670;2023-04-25T08:47:53;4.70;;;2.88;;
73693;SDS011;61997;53.974;11.670;2023-04-25T08:50:27;7.93;;;3.28;;
73693;SDS011;61997;53.974;11.670;2023-04-25T08:52:56;6.15;;;3.28;;
73693;SDS011;61997;53.974;11.670;2023-04-25T08:58:10;7.18;;;3.08;;
73693;SDS011;61997;53.974;11.670;2023-04-25T09:00:45;5.60;;;3.20;;
73693;SDS011;61997;53.974;11.670;2023-04-25T09:03:18;7.28;;;2.83;;
73693;SDS011;61997;53.974;11.670;2023-04-25T09:05:50;5.78;;;3.13;;
73693;SDS011;61997;53.974;11.670;2023-04-25T09:08:19;6.72;;;2.85;;
73693;SDS011;61997;53.974;11.670;2023-04-25T09:10:54;5.72;;;2.50;;
73693;SDS011;61997;53.974;11.670;2023-04-25T09:13:32;5.78;;;2.85;;
73693;SDS011;61997;53.974;11.670;2023-04-25T09:16:02;7.00;;;3.05;;
73693;SDS011;61997;53.974;11.670;2023-04-25T09:18:35;6.38;;;2.70;;
73693;SDS011;61997;53.974;11.670;2023-04-25T09:21:09;7.72;;;3.20;;
73693;SDS011;61997;53.974;11.670;2023-04-25T09:26:20;4.82;;;2.15;;
73693;SDS011;61997;53.974;11.670;2023-04-25T09:29:06;4.65;;;2.20;;
73693;SDS011;61997;53.974;11.670;2023-04-25T09:31:44;6.35;;;2.60;;
73693;SDS011;61997;53.974;11.670;2023-04-25T09:34:14;7.30;;;2.67;;
73693;SDS011;61997;53.974;11.670;2023-04-25T09:36:44;5.05;;;2.45;;
73693;SDS011;61997;53.974;11.670;2023-04-25T09:39:28;5.38;;;2.80;;
73693;SDS011;61997;53.974;11.670;2023-04-25T09:42:00;8.45;;;2.65;;
73693;SDS011;61997;53.974;11.670;2023-04-25T09:44:28;5.90;;;2.22;;
73693;SDS011;61997;53.974;11.670;2023-04-25T09:46:57;4.93;;;2.10;;
73693;SDS011;61997;53.974;11.670;2023-04-25T09:49:29;6.72;;;2.50;;
73693;SDS011;61997;53.974;11.670;2023-04-25T09:52:03;5.43;;;2.40;;
73693;SDS011;61997;53.974;11.670;2023-04-25T09:54:37;5.45;;;2.28;;
73693;SDS011;61997;53.974;11.670;2023-04-25T09:57:11;5.78;;;2.22;;
73693;SDS011;61997;53.974;11.670;2023-04-25T09:59:43;3.92;;;2.22;;
73693;SDS011;61997;53.974;11.670;2023-04-25T10:02:10;3.05;;;2.20;;
73693;SDS011;61997;53.974;11.670;2023-04-25T10:04:36;5.68;;;2.25;;
73693;SDS011;61997;53.974;11.670;2023-04-25T10:07:04;5.95;;;2.10;;
73693;SDS011;61997;53.974;11.670;2023-04-25T10:09:31;5.13;;;2.10;;
73693;SDS011;61997;53.974;11.670;2023-04-25T10:12:00;4.68;;;2.28;;
73693;SDS011;61997;53.974;11.670;2023-04-25T10:14:26;8.35;;;2.20;;
73693;SDS011;61997;53.974;11.670;2023-04-25T10:16:52;5.60;;;1.98;;
73693;SDS011;61997;53.974;11.670;2023-04-25T10:19:21;3.17;;;2.05;;
73693;SDS011;61997;53.974;11.670;2023-04-25T10:24:26;5.47;;;2.40;;
73693;SDS011;61997;53.974;11.670;2023-04-25T10:27:08;3.88;;;1.70;;
73693;SDS011;61997;53.974;11.670;2023-04-25T10:29:37;5.60;;;1.85;;
73693;SDS011;61997;53.974;11.670;2023-04-25T10:32:13;3.97;;;1.83;;
73693;SDS011;61997;53.974;11.670;2023-04-25T10:34:42;5.70;;;2.20;;
73693;SDS011;61997;53.974;11.670;2023-04-25T10:37:12;4.28;;;1.98;;
73693;SDS011;61997;53.974;11.670;2023-04-25T10:39:41;5.80;;;2.15;;
73693;SDS011;61997;53.974;11.670;2023-04-25T10:42:08;4.93;;;1.98;;
73693;SDS011;61997;53.974;11.670;2023-04-25T10:44:36;3.80;;;2.10;;
73693;SDS011;61997;53.974;11.670;2023-04-25T10:47:05;7.25;;;2.88;;
73693;SDS011;61997;53.974;11.670;2023-04-25T10:49:32;4.43;;;1.50;;
73693;SDS011;61997;53.974;11.670;2023-04-25T10:52:12;7.05;;;2.03;;
73693;SDS011;61997;53.974;11.670;2023-04-25T10:54:56;3.90;;;1.83;;
73693;SDS011;61997;53.974;11.670;2023-04-25T10:57:28;3.08;;;1.58;;
73693;SDS011;61997;53.974;11.670;2023-04-25T11:00:01;3.75;;;1.52;;
73693;SDS011;61997;53.974;11.670;2023-04-25T11:02:36;3.83;;;1.40;;
73693;SDS011;61997;53.974;11.670;2023-04-25T11:05:05;4.68;;;1.83;;
73693;SDS011;61997;53.974;11.670;2023-04-25T11:10:05;4.63;;;1.55;;
73693;SDS011;61997;53.974;11.670;2023-04-25T11:12:31;5.15;;;1.65;;
73693;SDS011;61997;53.974;11.670;2023-04-25T11:15:03;3.60;;;1.30;;
73693;SDS011;61997;53.974;11.670;2023-04-25T11:17:30;4.60;;;1.70;;
73693;SDS011;61997;53.974;11.670;2023-04-25T11:19:56;4.28;;;1.80;;
73693;SDS011;61997;53.974;11.670;2023-04-25T11:22:24;3.40;;;1.77;;
73693;SDS011;61997;53.974;11.670;2023-04-25T11:24:52;5.63;;;1.50;;
73693;SDS011;61997;53.974;11.670;2023-04-25T11:27:18;5.20;;;1.60;;
73693;SDS011;61997;53.974;11.670;2023-04-25T11:29:44;5.15;;;1.73;;
73693;SDS011;61997;53.974;11.670;2023-04-25T11:32:14;4.05;;;1.30;;
73693;SDS011;61997;53.974;11.670;2023-04-25T11:37:08;2.78;;;1.30;;
73693;SDS011;61997;53.974;11.670;2023-04-25T11:39:34;2.97;;;1.08;;
73693;SDS011;61997;53.974;11.670;2023-04-25T11:42:01;4.00;;;1.90;;
73693;SDS011;61997;53.974;11.670;2023-04-25T11:44:37;5.32;;;1.48;;
73693;SDS011;61997;53.974;11.670;2023-04-25T11:47:08;1.83;;;1.08;;
73693;SDS011;61997;53.974;11.670;2023-04-25T11:49:35;4.97;;;1.27;;
73693;SDS011;61997;53.974;11.670;2023-04-25T11:52:00;3.28;;;1.10;;
73693;SDS011;61997;53.974;11.670;2023-04-25T11:54:26;3.15;;;1.40;;
73693;SDS011;61997;53.974;11.670;2023-04-25T11:56:52;2.72;;;1.15;;
73693;SDS011;61997;53.974;11.670;2023-04-25T11:59:17;3.13;;;1.33;;
73693;SDS011;61997;53.974;11.670;2023-04-25T12:01:49;1.85;;;0.98;;
73693;SDS011;61997;53.974;11.670;2023-04-25T12:04:16;3.40;;;1.20;;
73693;SDS011;61997;53.974;11.670;2023-04-25T12:06:43;3.33;;;1.23;;
73693;SDS011;61997;53.974;11.670;2023-04-25T12:09:12;4.35;;;1.42;;
73693;SDS011;61997;53.974;11.670;2023-04-25T12:11:42;3.33;;;1.50;;
73693;SDS011;61997;53.974;11.670;2023-04-25T12:14:10;4.72;;;1.17;;
73693;SDS011;61997;53.974;11.670;2023-04-25T12:16:45;4.05;;;1.30;;
73693;SDS011;61997;53.974;11.670;2023-04-25T12:19:19;3.00;;;1.00;;
73693;SDS011;61997;53.974;11.670;2023-04-25T12:21:49;2.58;;;1.00;;
73693;SDS011;61997;53.974;11.670;2023-04-25T12:24:17;4.15;;;1.30;;
73693;SDS011;61997;53.974;11.670;2023-04-25T12:27:02;4.28;;;1.42;;
73693;SDS011;61997;53.974;11.670;2023-04-25T12:29:35;3.10;;;1.13;;
73693;SDS011;61997;53.974;11.670;2023-04-25T12:32:01;2.70;;;1.10;;
73693;SDS011;61997;53.974;11.670;2023-04-25T12:34:27;4.28;;;1.20;;
73693;SDS011;61997;53.974;11.670;2023-04-25T12:37:00;4.82;;;1.25;;
73693;SDS011;61997;53.974;11.670;2023-04-25T12:39:30;2.53;;;1.20;;
73693;SDS011;61997;53.974;11.670;2023-04-25T12:41:56;3.50;;;1.10;;
73693;SDS011;61997;53.974;11.670;2023-04-25T12:44:24;3.88;;;1.20;;
73693;SDS011;61997;53.974;11.670;2023-04-25T12:46:57;3.20;;;1.20;;
73693;SDS011;61997;53.974;11.670;2023-04-25T12:49:24;2.75;;;1.52;;
73693;SDS011;61997;53.974;11.670;2023-04-25T12:51:51;2.90;;;1.00;;
73693;SDS011;61997;53.974;11.670;2023-04-25T12:54:20;3.05;;;1.27;;
73693;SDS011;61997;53.974;11.670;2023-04-25T12:56:50;1.95;;;0.77;;
73693;SDS011;61997;53.974;11.670;2023-04-25T12:59:16;2.35;;;1.00;;
73693;SDS011;61997;53.974;11.670;2023-04-25T13:04:10;4.35;;;1.02;;
73693;SDS011;61997;53.974;11.670;2023-04-25T13:06:36;3.33;;;1.20;;
73693;SDS011;61997;53.974;11.670;2023-04-25T13:09:01;4.05;;;1.13;;
73693;SDS011;61997;53.974;11.670;2023-04-25T13:11:28;1.85;;;0.77;;
73693;SDS011;61997;53.974;11.670;2023-04-25T13:13:54;2.75;;;1.02;;
73693;SDS011;61997;53.974;11.670;2023-04-25T13:16:20;2.55;;;0.90;;
73693;SDS011;61997;53.974;11.670;2023-04-25T13:18:52;2.50;;;1.10;;
73693;SDS011;61997;53.974;11.670;2023-04-25T13:21:30;3.67;;;1.02;;
73693;SDS011;61997;53.974;11.670;2023-04-25T13:24:06;2.60;;;0.93;;
73693;SDS011;61997;53.974;11.670;2023-04-25T13:26:36;3.15;;;0.90;;
73693;SDS011;61997;53.974;11.670;2023-04-25T13:29:11;1.70;;;1.08;;
73693;SDS011;61997;53.974;11.670;2023-04-25T13:31:42;3.72;;;1.23;;
73693;SDS011;61997;53.974;11.670;2023-04-25T13:34:26;5.40;;;1.20;;
73693;SDS011;61997;53.974;11.670;2023-04-25T13:36:54;3.58;;;1.30;;
73693;SDS011;61997;53.974;11.670;2023-04-25T13:39:24;3.72;;;1.02;;
73693;SDS011;61997;53.974;11.670;2023-04-25T13:41:53;3.35;;;1.23;;
73693;SDS011;61997;53.974;11.670;2023-04-25T13:44:29;3.50;;;0.98;;
73693;SDS011;61997;53.974;11.670;2023-04-25T13:47:04;2.88;;;1.20;;
73693;SDS011;61997;53.974;11.670;2023-04-25T13:49:45;4.22;;;1.05;;
73693;SDS011;61997;53.974;11.670;2023-04-25T13:52:23;2.80;;;1.08;;
73693;SDS011;61997;53.974;11.670;2023-04-25T13:54:57;2.90;;;1.10;;
73693;SDS011;61997;53.974;11.670;2023-04-25T13:57:38;4.18;;;1.00;;
73693;SDS011;61997;53.974;11.670;2023-04-25T14:00:12;2.75;;;1.00;;
73693;SDS011;61997;53.974;11.670;2023-04-25T14:02:54;3.75;;;1.10;;
73693;SDS011;61997;53.974;11.670;2023-04-25T14:05:31;4.00;;;1.17;;
73693;SDS011;61997;53.974;11.670;2023-04-25T14:08:08;2.42;;;1.17;;
73693;SDS011;61997;53.974;11.670;2023-04-25T14:10:45;2.63;;;1.00;;
73693;SDS011;61997;53.974;11.670;2023-04-25T14:13:20;2.10;;;1.25;;
73693;SDS011;61997;53.974;11.670;2023-04-25T14:15:56;3.40;;;0.90;;
73693;SDS011;61997;53.974;11.670;2023-04-25T14:18:33;1.52;;;0.80;;
73693;SDS011;61997;53.974;11.670;2023-04-25T14:21:08;3.47;;;1.27;;
73693;SDS011;61997;53.974;11.670;2023-04-25T14:23:38;2.22;;;1.00;;
73693;SDS011;61997;53.974;11.670;2023-04-25T14:26:11;5.22;;;1.92;;
73693;SDS011;61997;53.974;11.670;2023-04-25T14:28:41;3.90;;;1.90;;
73693;SDS011;61997;53.974;11.670;2023-04-25T14:31:13;4.85;;;1.98;;
73693;SDS011;61997;53.974;11.670;2023-04-25T14:33:49;6.20;;;3.03;;
73693;SDS011;61997;53.974;11.670;2023-04-25T14:36:27;6.65;;;3.13;;
73693;SDS011;61997;53.974;11.670;2023-04-25T14:39:03;6.82;;;3.20;;
73693;SDS011;61997;53.974;11.670;2023-04-25T14:41:39;4.72;;;2.90;;
73693;SDS011;61997;53.974;11.670;2023-04-25T14:44:12;5.90;;;2.60;;
73693;SDS011;61997;53.974;11.670;2023-04-25T14:46:43;4.75;;;2.22;;
73693;SDS011;61997;53.974;11.670;2023-04-25T14:49:18;5.25;;;2.78;;
73693;SDS011;61997;53.974;11.670;2023-04-25T14:51:55;6.15;;;2.40;;
73693;SDS011;61997;53.974;11.670;2023-04-25T14:54:25;5.82;;;2.72;;
73693;SDS011;61997;53.974;11.670;2023-04-25T14:57:00;5.47;;;2.63;;
73693;SDS011;61997;53.974;11.670;2023-04-25T14:59:28;4.93;;;2.35;;
73693;SDS011;61997;53.974;11.670;2023-04-25T15:02:01;6.45;;;2.53;;
73693;SDS011;61997;53.974;11.670;2023-04-25T15:06:58;3.63;;;2.20;;
73693;SDS011;61997;53.974;11.670;2023-04-25T15:09:24;4.85;;;2.30;;
73693;SDS011;61997;53.974;11.670;2023-04-25T15:11:50;3.55;;;2.00;;
73693;SDS011;61997;53.974;11.670;2023-04-25T15:14:16;5.72;;;2.38;;
73693;SDS011;61997;53.974;11.670;2023-04-25T15:16:42;4.13;;;2.13;;
73693;SDS011;61997;53.974;11.670;2023-04-25T15:19:07;4.65;;;2.40;;
73693;SDS011;61997;53.974;11.670;2023-04-25T15:21:33;6.40;;;2.80;;